Página principal
METAR-TAF:

METAR-TAF

Aeroportos :

Ambae, Vanuatu

latitude: 15-18-24S, longitude: 167-58-02E, altura: 51 m

METAR: em falta

Hora: 13:50 (02:50 UTC)

Previsão

O boletim foi feito há 4 horas e 30 minutos, às 22:20 UTC
Previsão válida de 19 às 00 UTC a 19 às 24 UTC
Vento 6 kt de es-sudeste
Visibilidade: 9000 m
Nuvens dispersasa uma altura de 2000 ft
Nuvens fragmentadasa uma altura de 1800 ft
aguaceiros fracos de chuva

TAF: NVSG 182220Z 1900/1924 12006KT 9999 SCT020 INTER 1900/1906 9000 -SHRA BKN018

Observações e previsões do tempo de mais de 4000 aeroportos (mensagens METAR e TAF).

As estações disponíveis são os pontos amarelos e vermelhos sobre o mapa.

Mova o rato sobre o mapa para ver o nome da estação.

Depois clique no ponto para visualizar as observações e previsões meteorológicas.

Para alterar o mapa : clique nos botões verdes com uma cruz preta para aumentar o zoom; no botão verde com uma pitada de zoom; ou nas setas verdes para mapas adjacentes.


METAR-TAF: